Terminal Aerodrome Forecast
Issued by NWS Northern Indiana

Home | Current Version | Previous Version | Text Only | Print | Product List | Glossary On
Versions: 1 2 3 4 5 6 7 8 9 10 11 12 13
000
FTUS43 KIWX 281100
TAFFWA
TAF
KFWA 281121Z 2812/0112 VRB03KT P6SM SCT100
     FM281400 14006KT P6SM SCT025 BKN100
     FM010300 12005KT 4SM -SN BKN025 OVC040
     FM010700 17004KT 2SM -SN OVC010=

USA.gov is the U.S. government's official web portal to all federal, state and local government web resources and services.